sensor_id;sensor_type;location;lat;lon;timestamp;P1;durP1;ratioP1;P2;durP2;ratioP2
3769;SDS011;1900;48.890;9.190;2023-04-23T00:00:13;4.87;;;2.77;;
3769;SDS011;1900;48.890;9.190;2023-04-23T00:02:42;6.23;;;2.87;;
3769;SDS011;1900;48.890;9.190;2023-04-23T00:05:08;4.03;;;2.80;;
3769;SDS011;1900;48.890;9.190;2023-04-23T00:07:37;5.33;;;2.97;;
3769;SDS011;1900;48.890;9.190;2023-04-23T00:10:03;5.60;;;2.73;;
3769;SDS011;1900;48.890;9.190;2023-04-23T00:12:30;5.47;;;2.90;;
3769;SDS011;1900;48.890;9.190;2023-04-23T00:14:56;3.67;;;2.53;;
3769;SDS011;1900;48.890;9.190;2023-04-23T00:17:23;4.10;;;2.53;;
3769;SDS011;1900;48.890;9.190;2023-04-23T00:19:48;4.60;;;2.77;;
3769;SDS011;1900;48.890;9.190;2023-04-23T00:22:15;4.30;;;3.07;;
3769;SDS011;1900;48.890;9.190;2023-04-23T00:24:42;7.43;;;3.43;;
3769;SDS011;1900;48.890;9.190;2023-04-23T00:27:08;3.47;;;2.47;;
3769;SDS011;1900;48.890;9.190;2023-04-23T00:29:33;8.37;;;2.53;;
3769;SDS011;1900;48.890;9.190;2023-04-23T00:31:59;3.50;;;2.77;;
3769;SDS011;1900;48.890;9.190;2023-04-23T00:34:25;3.10;;;2.60;;
3769;SDS011;1900;48.890;9.190;2023-04-23T00:36:51;5.07;;;2.60;;
3769;SDS011;1900;48.890;9.190;2023-04-23T00:39:16;3.37;;;3.03;;
3769;SDS011;1900;48.890;9.190;2023-04-23T00:41:44;4.27;;;2.70;;
3769;SDS011;1900;48.890;9.190;2023-04-23T00:44:10;4.23;;;3.10;;
3769;SDS011;1900;48.890;9.190;2023-04-23T00:46:37;5.97;;;2.93;;
3769;SDS011;1900;48.890;9.190;2023-04-23T00:49:03;2.80;;;2.37;;
3769;SDS011;1900;48.890;9.190;2023-04-23T00:51:28;3.67;;;2.77;;
3769;SDS011;1900;48.890;9.190;2023-04-23T00:53:56;4.73;;;3.20;;
3769;SDS011;1900;48.890;9.190;2023-04-23T00:56:22;5.57;;;2.57;;
3769;SDS011;1900;48.890;9.190;2023-04-23T00:58:49;7.20;;;3.23;;
3769;SDS011;1900;48.890;9.190;2023-04-23T01:01:16;5.33;;;2.57;;
3769;SDS011;1900;48.890;9.190;2023-04-23T01:03:44;5.10;;;2.80;;
3769;SDS011;1900;48.890;9.190;2023-04-23T01:06:12;3.50;;;2.60;;
3769;SDS011;1900;48.890;9.190;2023-04-23T01:08:39;4.60;;;2.63;;
3769;SDS011;1900;48.890;9.190;2023-04-23T01:11:07;12.63;;;3.07;;
3769;SDS011;1900;48.890;9.190;2023-04-23T01:13:33;4.00;;;3.43;;
3769;SDS011;1900;48.890;9.190;2023-04-23T01:15:59;5.50;;;3.00;;
3769;SDS011;1900;48.890;9.190;2023-04-23T01:18:26;4.63;;;3.20;;
3769;SDS011;1900;48.890;9.190;2023-04-23T01:20:52;9.93;;;3.50;;
3769;SDS011;1900;48.890;9.190;2023-04-23T01:23:17;4.67;;;3.50;;
3769;SDS011;1900;48.890;9.190;2023-04-23T01:25:44;9.87;;;4.03;;
3769;SDS011;1900;48.890;9.190;2023-04-23T01:28:10;7.80;;;3.83;;
3769;SDS011;1900;48.890;9.190;2023-04-23T01:30:36;5.80;;;4.10;;
3769;SDS011;1900;48.890;9.190;2023-04-23T01:33:03;8.77;;;3.73;;
3769;SDS011;1900;48.890;9.190;2023-04-23T01:35:30;7.13;;;4.53;;
3769;SDS011;1900;48.890;9.190;2023-04-23T01:37:58;7.67;;;3.83;;
3769;SDS011;1900;48.890;9.190;2023-04-23T01:40:26;6.80;;;4.30;;
3769;SDS011;1900;48.890;9.190;2023-04-23T01:42:52;5.20;;;3.83;;
3769;SDS011;1900;48.890;9.190;2023-04-23T01:45:18;8.07;;;4.50;;
3769;SDS011;1900;48.890;9.190;2023-04-23T01:47:44;5.10;;;4.17;;
3769;SDS011;1900;48.890;9.190;2023-04-23T01:50:11;7.30;;;3.83;;
3769;SDS011;1900;48.890;9.190;2023-04-23T01:52:36;5.47;;;3.90;;
3769;SDS011;1900;48.890;9.190;2023-04-23T01:55:02;6.90;;;3.67;;
3769;SDS011;1900;48.890;9.190;2023-04-23T01:57:28;5.30;;;3.57;;
3769;SDS011;1900;48.890;9.190;2023-04-23T01:59:56;4.50;;;4.10;;
3769;SDS011;1900;48.890;9.190;2023-04-23T02:02:37;4.67;;;3.67;;
3769;SDS011;1900;48.890;9.190;2023-04-23T02:05:09;6.10;;;3.90;;
3769;SDS011;1900;48.890;9.190;2023-04-23T02:07:40;5.50;;;3.43;;
3769;SDS011;1900;48.890;9.190;2023-04-23T02:10:08;5.10;;;3.63;;
3769;SDS011;1900;48.890;9.190;2023-04-23T02:12:35;5.10;;;3.57;;
3769;SDS011;1900;48.890;9.190;2023-04-23T02:15:01;7.40;;;4.33;;
3769;SDS011;1900;48.890;9.190;2023-04-23T02:17:27;5.63;;;3.60;;
3769;SDS011;1900;48.890;9.190;2023-04-23T02:19:53;6.50;;;4.30;;
3769;SDS011;1900;48.890;9.190;2023-04-23T02:22:20;9.03;;;3.90;;
3769;SDS011;1900;48.890;9.190;2023-04-23T02:24:49;5.23;;;3.77;;
3769;SDS011;1900;48.890;9.190;2023-04-23T02:27:15;5.70;;;3.77;;
3769;SDS011;1900;48.890;9.190;2023-04-23T02:29:41;5.87;;;3.70;;
3769;SDS011;1900;48.890;9.190;2023-04-23T02:32:06;5.07;;;3.37;;
3769;SDS011;1900;48.890;9.190;2023-04-23T02:34:32;5.63;;;3.77;;
3769;SDS011;1900;48.890;9.190;2023-04-23T02:36:58;3.80;;;3.20;;
3769;SDS011;1900;48.890;9.190;2023-04-23T02:39:24;6.73;;;3.80;;
3769;SDS011;1900;48.890;9.190;2023-04-23T02:41:50;3.70;;;3.33;;
3769;SDS011;1900;48.890;9.190;2023-04-23T02:44:15;7.43;;;3.63;;
3769;SDS011;1900;48.890;9.190;2023-04-23T02:46:41;7.10;;;4.07;;
3769;SDS011;1900;48.890;9.190;2023-04-23T02:49:07;5.43;;;4.37;;
3769;SDS011;1900;48.890;9.190;2023-04-23T02:51:32;5.87;;;4.40;;
3769;SDS011;1900;48.890;9.190;2023-04-23T02:53:58;7.13;;;4.27;;
3769;SDS011;1900;48.890;9.190;2023-04-23T02:56:24;9.47;;;4.70;;
3769;SDS011;1900;48.890;9.190;2023-04-23T02:58:50;7.03;;;4.10;;
3769;SDS011;1900;48.890;9.190;2023-04-23T03:01:15;10.10;;;3.70;;
3769;SDS011;1900;48.890;9.190;2023-04-23T03:03:41;4.03;;;3.67;;
3769;SDS011;1900;48.890;9.190;2023-04-23T03:06:07;5.03;;;4.00;;
3769;SDS011;1900;48.890;9.190;2023-04-23T03:08:33;5.83;;;3.23;;
3769;SDS011;1900;48.890;9.190;2023-04-23T03:10:58;4.40;;;3.30;;
3769;SDS011;1900;48.890;9.190;2023-04-23T03:13:25;6.33;;;3.40;;
3769;SDS011;1900;48.890;9.190;2023-04-23T03:15:51;4.27;;;3.33;;
3769;SDS011;1900;48.890;9.190;2023-04-23T03:18:18;4.53;;;2.90;;
3769;SDS011;1900;48.890;9.190;2023-04-23T03:20:47;6.43;;;3.13;;
3769;SDS011;1900;48.890;9.190;2023-04-23T03:23:13;4.63;;;3.27;;
3769;SDS011;1900;48.890;9.190;2023-04-23T03:25:39;5.57;;;3.30;;
3769;SDS011;1900;48.890;9.190;2023-04-23T03:28:05;5.90;;;3.30;;
3769;SDS011;1900;48.890;9.190;2023-04-23T03:30:31;5.83;;;3.43;;
3769;SDS011;1900;48.890;9.190;2023-04-23T03:32:57;3.73;;;3.27;;
3769;SDS011;1900;48.890;9.190;2023-04-23T03:35:24;5.00;;;2.93;;
3769;SDS011;1900;48.890;9.190;2023-04-23T03:37:52;7.10;;;4.33;;
3769;SDS011;1900;48.890;9.190;2023-04-23T03:40:18;7.40;;;3.70;;
3769;SDS011;1900;48.890;9.190;2023-04-23T03:42:47;8.97;;;5.17;;
3769;SDS011;1900;48.890;9.190;2023-04-23T03:45:15;5.13;;;3.37;;
3769;SDS011;1900;48.890;9.190;2023-04-23T03:47:41;3.70;;;3.13;;
3769;SDS011;1900;48.890;9.190;2023-04-23T03:50:08;4.70;;;3.70;;
3769;SDS011;1900;48.890;9.190;2023-04-23T03:52:34;4.90;;;3.50;;
3769;SDS011;1900;48.890;9.190;2023-04-23T03:55:01;3.83;;;2.97;;
3769;SDS011;1900;48.890;9.190;2023-04-23T03:57:32;3.20;;;2.90;;
3769;SDS011;1900;48.890;9.190;2023-04-23T04:00:21;4.40;;;3.00;;
3769;SDS011;1900;48.890;9.190;2023-04-23T04:02:47;11.23;;;3.40;;
3769;SDS011;1900;48.890;9.190;2023-04-23T04:05:12;3.40;;;3.10;;
3769;SDS011;1900;48.890;9.190;2023-04-23T04:07:38;6.00;;;2.90;;
3769;SDS011;1900;48.890;9.190;2023-04-23T04:10:05;6.13;;;3.10;;
3769;SDS011;1900;48.890;9.190;2023-04-23T04:12:31;8.00;;;4.50;;
3769;SDS011;1900;48.890;9.190;2023-04-23T04:14:57;7.27;;;2.83;;
3769;SDS011;1900;48.890;9.190;2023-04-23T04:17:23;5.03;;;2.93;;
3769;SDS011;1900;48.890;9.190;2023-04-23T04:19:48;3.70;;;2.60;;
3769;SDS011;1900;48.890;9.190;2023-04-23T04:22:14;5.23;;;3.07;;
3769;SDS011;1900;48.890;9.190;2023-04-23T04:24:40;4.40;;;2.80;;
3769;SDS011;1900;48.890;9.190;2023-04-23T04:27:06;4.83;;;2.80;;
3769;SDS011;1900;48.890;9.190;2023-04-23T04:29:33;2.60;;;2.40;;
3769;SDS011;1900;48.890;9.190;2023-04-23T04:31:59;4.23;;;2.77;;
3769;SDS011;1900;48.890;9.190;2023-04-23T04:34:26;2.10;;;1.90;;
3769;SDS011;1900;48.890;9.190;2023-04-23T04:36:52;2.73;;;2.50;;
3769;SDS011;1900;48.890;9.190;2023-04-23T04:39:19;2.90;;;2.23;;
3769;SDS011;1900;48.890;9.190;2023-04-23T04:41:44;2.80;;;2.47;;
3769;SDS011;1900;48.890;9.190;2023-04-23T04:44:11;4.27;;;2.60;;
3769;SDS011;1900;48.890;9.190;2023-04-23T04:46:38;3.37;;;2.60;;
3769;SDS011;1900;48.890;9.190;2023-04-23T04:49:10;2.63;;;1.90;;
3769;SDS011;1900;48.890;9.190;2023-04-23T04:51:36;4.03;;;2.10;;
3769;SDS011;1900;48.890;9.190;2023-04-23T04:54:03;2.87;;;2.30;;
3769;SDS011;1900;48.890;9.190;2023-04-23T04:56:30;2.63;;;2.40;;
3769;SDS011;1900;48.890;9.190;2023-04-23T04:58:56;2.57;;;2.37;;
3769;SDS011;1900;48.890;9.190;2023-04-23T05:01:21;4.17;;;2.30;;
3769;SDS011;1900;48.890;9.190;2023-04-23T05:03:49;3.13;;;1.73;;
3769;SDS011;1900;48.890;9.190;2023-04-23T05:06:15;2.80;;;2.20;;
3769;SDS011;1900;48.890;9.190;2023-04-23T05:08:41;4.73;;;2.30;;
3769;SDS011;1900;48.890;9.190;2023-04-23T05:11:12;2.47;;;1.97;;
3769;SDS011;1900;48.890;9.190;2023-04-23T05:13:42;2.77;;;2.43;;
3769;SDS011;1900;48.890;9.190;2023-04-23T05:16:08;3.43;;;1.90;;
3769;SDS011;1900;48.890;9.190;2023-04-23T05:18:36;3.20;;;1.70;;
3769;SDS011;1900;48.890;9.190;2023-04-23T05:21:02;7.13;;;3.10;;
3769;SDS011;1900;48.890;9.190;2023-04-23T05:23:27;2.37;;;1.90;;
3769;SDS011;1900;48.890;9.190;2023-04-23T05:25:53;2.20;;;1.90;;
3769;SDS011;1900;48.890;9.190;2023-04-23T05:28:20;6.03;;;2.10;;
3769;SDS011;1900;48.890;9.190;2023-04-23T05:30:46;2.87;;;2.00;;
3769;SDS011;1900;48.890;9.190;2023-04-23T05:33:11;2.13;;;1.80;;
3769;SDS011;1900;48.890;9.190;2023-04-23T05:35:37;2.77;;;2.20;;
3769;SDS011;1900;48.890;9.190;2023-04-23T05:38:03;5.03;;;2.10;;
3769;SDS011;1900;48.890;9.190;2023-04-23T05:40:30;3.30;;;2.47;;
3769;SDS011;1900;48.890;9.190;2023-04-23T05:42:59;2.23;;;2.00;;
3769;SDS011;1900;48.890;9.190;2023-04-23T05:45:26;3.57;;;2.17;;
3769;SDS011;1900;48.890;9.190;2023-04-23T05:47:52;2.43;;;2.23;;
3769;SDS011;1900;48.890;9.190;2023-04-23T05:50:18;3.57;;;2.30;;
3769;SDS011;1900;48.890;9.190;2023-04-23T05:52:45;2.47;;;2.13;;
3769;SDS011;1900;48.890;9.190;2023-04-23T05:55:11;2.10;;;1.90;;
3769;SDS011;1900;48.890;9.190;2023-04-23T05:57:36;2.03;;;1.83;;
3769;SDS011;1900;48.890;9.190;2023-04-23T06:00:06;3.70;;;2.37;;
3769;SDS011;1900;48.890;9.190;2023-04-23T06:02:38;3.63;;;1.50;;
3769;SDS011;1900;48.890;9.190;2023-04-23T06:05:05;2.00;;;1.73;;
3769;SDS011;1900;48.890;9.190;2023-04-23T06:07:32;2.27;;;1.90;;
3769;SDS011;1900;48.890;9.190;2023-04-23T06:09:57;1.90;;;1.70;;
3769;SDS011;1900;48.890;9.190;2023-04-23T06:12:23;1.60;;;1.50;;
3769;SDS011;1900;48.890;9.190;2023-04-23T06:14:50;2.40;;;1.47;;
3769;SDS011;1900;48.890;9.190;2023-04-23T06:17:16;2.33;;;1.60;;
3769;SDS011;1900;48.890;9.190;2023-04-23T06:19:42;2.10;;;1.70;;
3769;SDS011;1900;48.890;9.190;2023-04-23T06:22:07;1.90;;;1.60;;
3769;SDS011;1900;48.890;9.190;2023-04-23T06:24:34;1.60;;;1.50;;
3769;SDS011;1900;48.890;9.190;2023-04-23T06:26:59;2.50;;;2.10;;
3769;SDS011;1900;48.890;9.190;2023-04-23T06:29:26;2.07;;;1.60;;
3769;SDS011;1900;48.890;9.190;2023-04-23T06:31:59;2.17;;;1.63;;
3769;SDS011;1900;48.890;9.190;2023-04-23T06:34:26;3.53;;;1.87;;
3769;SDS011;1900;48.890;9.190;2023-04-23T06:36:52;2.03;;;1.67;;
3769;SDS011;1900;48.890;9.190;2023-04-23T06:39:18;2.03;;;1.70;;
3769;SDS011;1900;48.890;9.190;2023-04-23T06:41:44;1.60;;;1.50;;
3769;SDS011;1900;48.890;9.190;2023-04-23T06:44:21;1.83;;;1.73;;
3769;SDS011;1900;48.890;9.190;2023-04-23T06:46:52;3.27;;;1.60;;
3769;SDS011;1900;48.890;9.190;2023-04-23T06:49:18;1.93;;;1.70;;
3769;SDS011;1900;48.890;9.190;2023-04-23T06:51:44;1.90;;;1.80;;
3769;SDS011;1900;48.890;9.190;2023-04-23T06:54:10;1.73;;;1.63;;
3769;SDS011;1900;48.890;9.190;2023-04-23T06:56:35;13.00;;;2.87;;
3769;SDS011;1900;48.890;9.190;2023-04-23T06:59:01;4.00;;;1.87;;
3769;SDS011;1900;48.890;9.190;2023-04-23T07:01:28;3.30;;;1.77;;
3769;SDS011;1900;48.890;9.190;2023-04-23T07:03:54;2.73;;;1.97;;
3769;SDS011;1900;48.890;9.190;2023-04-23T07:06:19;3.00;;;2.00;;
3769;SDS011;1900;48.890;9.190;2023-04-23T07:08:45;2.00;;;1.77;;
3769;SDS011;1900;48.890;9.190;2023-04-23T07:11:10;2.07;;;1.87;;
3769;SDS011;1900;48.890;9.190;2023-04-23T07:13:36;2.60;;;1.90;;
3769;SDS011;1900;48.890;9.190;2023-04-23T07:16:03;7.27;;;4.30;;
3769;SDS011;1900;48.890;9.190;2023-04-23T07:18:28;3.23;;;2.37;;
3769;SDS011;1900;48.890;9.190;2023-04-23T07:20:54;3.53;;;3.23;;
3769;SDS011;1900;48.890;9.190;2023-04-23T07:23:20;2.00;;;1.80;;
3769;SDS011;1900;48.890;9.190;2023-04-23T07:25:46;1.93;;;1.70;;
3769;SDS011;1900;48.890;9.190;2023-04-23T07:28:12;1.57;;;1.47;;
3769;SDS011;1900;48.890;9.190;2023-04-23T07:30:37;1.60;;;1.50;;
3769;SDS011;1900;48.890;9.190;2023-04-23T07:33:03;1.30;;;1.10;;
3769;SDS011;1900;48.890;9.190;2023-04-23T07:35:29;1.87;;;1.13;;
3769;SDS011;1900;48.890;9.190;2023-04-23T07:37:54;2.13;;;1.40;;
3769;SDS011;1900;48.890;9.190;2023-04-23T07:40:22;1.60;;;1.50;;
3769;SDS011;1900;48.890;9.190;2023-04-23T07:42:49;2.30;;;1.70;;
3769;SDS011;1900;48.890;9.190;2023-04-23T07:45:16;2.57;;;1.70;;
3769;SDS011;1900;48.890;9.190;2023-04-23T07:47:42;1.93;;;1.47;;
3769;SDS011;1900;48.890;9.190;2023-04-23T07:50:08;1.60;;;1.50;;
3769;SDS011;1900;48.890;9.190;2023-04-23T07:52:34;2.53;;;1.63;;
3769;SDS011;1900;48.890;9.190;2023-04-23T07:55:00;3.20;;;1.53;;
3769;SDS011;1900;48.890;9.190;2023-04-23T07:57:26;2.17;;;1.70;;
3769;SDS011;1900;48.890;9.190;2023-04-23T07:59:52;3.77;;;2.20;;
3769;SDS011;1900;48.890;9.190;2023-04-23T08:02:17;4.27;;;2.37;;
3769;SDS011;1900;48.890;9.190;2023-04-23T08:04:47;6.83;;;1.97;;
3769;SDS011;1900;48.890;9.190;2023-04-23T08:07:13;2.27;;;1.90;;
3769;SDS011;1900;48.890;9.190;2023-04-23T08:09:39;2.07;;;1.90;;
3769;SDS011;1900;48.890;9.190;2023-04-23T08:12:04;3.00;;;2.10;;
3769;SDS011;1900;48.890;9.190;2023-04-23T08:14:30;3.87;;;1.90;;
3769;SDS011;1900;48.890;9.190;2023-04-23T08:16:56;3.97;;;2.20;;
3769;SDS011;1900;48.890;9.190;2023-04-23T08:19:22;2.20;;;1.87;;
3769;SDS011;1900;48.890;9.190;2023-04-23T08:21:47;2.30;;;1.90;;
3769;SDS011;1900;48.890;9.190;2023-04-23T08:24:13;2.90;;;1.80;;
3769;SDS011;1900;48.890;9.190;2023-04-23T08:26:39;1.70;;;1.60;;
3769;SDS011;1900;48.890;9.190;2023-04-23T08:29:05;2.37;;;2.00;;
3769;SDS011;1900;48.890;9.190;2023-04-23T08:31:30;2.00;;;1.70;;
3769;SDS011;1900;48.890;9.190;2023-04-23T08:33:56;2.10;;;1.90;;
3769;SDS011;1900;48.890;9.190;2023-04-23T08:36:22;5.20;;;2.13;;
3769;SDS011;1900;48.890;9.190;2023-04-23T08:38:48;2.60;;;2.17;;
3769;SDS011;1900;48.890;9.190;2023-04-23T08:41:14;2.37;;;1.80;;
3769;SDS011;1900;48.890;9.190;2023-04-23T08:46:11;2.30;;;1.90;;
3769;SDS011;1900;48.890;9.190;2023-04-23T08:48:39;2.10;;;1.77;;
3769;SDS011;1900;48.890;9.190;2023-04-23T08:51:07;3.63;;;2.80;;
3769;SDS011;1900;48.890;9.190;2023-04-23T08:53:34;2.40;;;2.00;;
3769;SDS011;1900;48.890;9.190;2023-04-23T08:56:01;2.10;;;1.87;;
3769;SDS011;1900;48.890;9.190;2023-04-23T08:58:27;2.33;;;2.10;;
3769;SDS011;1900;48.890;9.190;2023-04-23T09:00:54;7.00;;;1.60;;
3769;SDS011;1900;48.890;9.190;2023-04-23T09:03:22;2.60;;;2.23;;
3769;SDS011;1900;48.890;9.190;2023-04-23T09:05:49;2.53;;;1.90;;
3769;SDS011;1900;48.890;9.190;2023-04-23T09:08:17;2.90;;;2.10;;
3769;SDS011;1900;48.890;9.190;2023-04-23T09:10:44;3.77;;;2.23;;
3769;SDS011;1900;48.890;9.190;2023-04-23T09:13:11;2.60;;;1.83;;
3769;SDS011;1900;48.890;9.190;2023-04-23T09:15:39;3.00;;;2.10;;
3769;SDS011;1900;48.890;9.190;2023-04-23T09:18:07;2.20;;;2.00;;
3769;SDS011;1900;48.890;9.190;2023-04-23T09:20:34;2.50;;;2.00;;
3769;SDS011;1900;48.890;9.190;2023-04-23T09:23:00;2.17;;;1.97;;
3769;SDS011;1900;48.890;9.190;2023-04-23T09:25:31;2.80;;;1.90;;
3769;SDS011;1900;48.890;9.190;2023-04-23T09:27:58;2.50;;;2.30;;
3769;SDS011;1900;48.890;9.190;2023-04-23T09:30:25;3.50;;;2.67;;
3769;SDS011;1900;48.890;9.190;2023-04-23T09:32:51;2.40;;;2.20;;
3769;SDS011;1900;48.890;9.190;2023-04-23T09:35:17;6.13;;;2.10;;
3769;SDS011;1900;48.890;9.190;2023-04-23T09:37:45;2.80;;;2.03;;
3769;SDS011;1900;48.890;9.190;2023-04-23T09:40:13;5.50;;;2.33;;
3769;SDS011;1900;48.890;9.190;2023-04-23T09:42:40;3.77;;;2.10;;
3769;SDS011;1900;48.890;9.190;2023-04-23T09:45:16;2.83;;;2.00;;
3769;SDS011;1900;48.890;9.190;2023-04-23T09:47:49;3.03;;;2.17;;
3769;SDS011;1900;48.890;9.190;2023-04-23T09:50:16;4.67;;;2.10;;
3769;SDS011;1900;48.890;9.190;2023-04-23T09:52:43;2.77;;;2.30;;
3769;SDS011;1900;48.890;9.190;2023-04-23T09:55:08;2.40;;;2.20;;
3769;SDS011;1900;48.890;9.190;2023-04-23T09:57:35;7.93;;;3.50;;
3769;SDS011;1900;48.890;9.190;2023-04-23T10:00:15;3.20;;;2.90;;
3769;SDS011;1900;48.890;9.190;2023-04-23T10:02:49;2.93;;;2.37;;
3769;SDS011;1900;48.890;9.190;2023-04-23T10:05:16;5.50;;;2.13;;
3769;SDS011;1900;48.890;9.190;2023-04-23T10:07:46;2.63;;;2.20;;
3769;SDS011;1900;48.890;9.190;2023-04-23T10:10:15;1.67;;;1.57;;
3769;SDS011;1900;48.890;9.190;2023-04-23T10:12:45;1.90;;;1.63;;
3769;SDS011;1900;48.890;9.190;2023-04-23T10:15:11;2.63;;;2.00;;
3769;SDS011;1900;48.890;9.190;2023-04-23T10:17:38;2.70;;;2.43;;
3769;SDS011;1900;48.890;9.190;2023-04-23T10:20:05;3.40;;;2.03;;
3769;SDS011;1900;48.890;9.190;2023-04-23T10:22:33;2.20;;;2.00;;
3769;SDS011;1900;48.890;9.190;2023-04-23T10:25:02;1.73;;;1.63;;
3769;SDS011;1900;48.890;9.190;2023-04-23T10:27:33;3.53;;;1.80;;
3769;SDS011;1900;48.890;9.190;2023-04-23T10:30:04;3.90;;;3.17;;
3769;SDS011;1900;48.890;9.190;2023-04-23T10:32:32;6.17;;;3.93;;
3769;SDS011;1900;48.890;9.190;2023-04-23T10:34:58;3.83;;;2.70;;
3769;SDS011;1900;48.890;9.190;2023-04-23T10:37:24;3.13;;;2.33;;
3769;SDS011;1900;48.890;9.190;2023-04-23T10:39:53;3.60;;;2.13;;
3769;SDS011;1900;48.890;9.190;2023-04-23T10:42:20;3.13;;;2.00;;
3769;SDS011;1900;48.890;9.190;2023-04-23T10:44:47;2.00;;;1.77;;
3769;SDS011;1900;48.890;9.190;2023-04-23T10:47:13;1.73;;;1.63;;
3769;SDS011;1900;48.890;9.190;2023-04-23T10:49:40;2.53;;;2.00;;
3769;SDS011;1900;48.890;9.190;2023-04-23T10:52:11;2.33;;;1.90;;
3769;SDS011;1900;48.890;9.190;2023-04-23T10:54:40;3.73;;;1.83;;
3769;SDS011;1900;48.890;9.190;2023-04-23T10:57:07;2.07;;;1.60;;
3769;SDS011;1900;48.890;9.190;2023-04-23T10:59:34;1.80;;;1.50;;
3769;SDS011;1900;48.890;9.190;2023-04-23T11:02:07;1.87;;;1.50;;
3769;SDS011;1900;48.890;9.190;2023-04-23T11:04:35;2.27;;;1.70;;
3769;SDS011;1900;48.890;9.190;2023-04-23T11:07:06;1.77;;;1.67;;
3769;SDS011;1900;48.890;9.190;2023-04-23T11:09:40;8.10;;;4.30;;
3769;SDS011;1900;48.890;9.190;2023-04-23T11:14:54;2.83;;;1.53;;
3769;SDS011;1900;48.890;9.190;2023-04-23T11:22:38;1.40;;;1.30;;
3769;SDS011;1900;48.890;9.190;2023-04-23T11:25:09;2.90;;;1.20;;
3769;SDS011;1900;48.890;9.190;2023-04-23T11:27:40;1.83;;;1.50;;
3769;SDS011;1900;48.890;9.190;2023-04-23T11:30:29;1.30;;;1.20;;
3769;SDS011;1900;48.890;9.190;2023-04-23T11:32:55;5.80;;;1.53;;
3769;SDS011;1900;48.890;9.190;2023-04-23T11:35:23;2.93;;;1.70;;
3769;SDS011;1900;48.890;9.190;2023-04-23T11:37:53;2.07;;;1.60;;
3769;SDS011;1900;48.890;9.190;2023-04-23T11:40:19;2.83;;;1.70;;
3769;SDS011;1900;48.890;9.190;2023-04-23T11:42:50;2.63;;;1.43;;
3769;SDS011;1900;48.890;9.190;2023-04-23T11:47:46;2.23;;;1.20;;
3769;SDS011;1900;48.890;9.190;2023-04-23T11:50:21;1.73;;;1.40;;
3769;SDS011;1900;48.890;9.190;2023-04-23T11:52:47;1.63;;;1.20;;
3769;SDS011;1900;48.890;9.190;2023-04-23T11:55:13;1.70;;;1.43;;
3769;SDS011;1900;48.890;9.190;2023-04-23T11:57:41;2.10;;;1.43;;
3769;SDS011;1900;48.890;9.190;2023-04-23T12:05:20;1.27;;;1.07;;
3769;SDS011;1900;48.890;9.190;2023-04-23T12:07:48;1.93;;;1.17;;
3769;SDS011;1900;48.890;9.190;2023-04-23T12:10:16;2.53;;;1.23;;
3769;SDS011;1900;48.890;9.190;2023-04-23T12:12:43;1.20;;;1.10;;
3769;SDS011;1900;48.890;9.190;2023-04-23T12:15:09;1.60;;;1.20;;
3769;SDS011;1900;48.890;9.190;2023-04-23T12:17:35;2.17;;;1.67;;
3769;SDS011;1900;48.890;9.190;2023-04-23T12:20:04;1.40;;;1.30;;
3769;SDS011;1900;48.890;9.190;2023-04-23T12:22:33;4.10;;;1.40;;
3769;SDS011;1900;48.890;9.190;2023-04-23T12:25:03;1.83;;;1.40;;
3769;SDS011;1900;48.890;9.190;2023-04-23T12:27:31;1.67;;;1.10;;
3769;SDS011;1900;48.890;9.190;2023-04-23T12:30:00;1.63;;;1.20;;
3769;SDS011;1900;48.890;9.190;2023-04-23T12:32:26;3.47;;;1.37;;
3769;SDS011;1900;48.890;9.190;2023-04-23T12:34:52;1.13;;;1.03;;
3769;SDS011;1900;48.890;9.190;2023-04-23T12:37:26;2.93;;;1.20;;
3769;SDS011;1900;48.890;9.190;2023-04-23T12:39:53;1.30;;;1.00;;
3769;SDS011;1900;48.890;9.190;2023-04-23T12:42:20;1.37;;;1.20;;
3769;SDS011;1900;48.890;9.190;2023-04-23T12:44:46;1.30;;;1.20;;
3769;SDS011;1900;48.890;9.190;2023-04-23T12:47:12;1.87;;;1.20;;
3769;SDS011;1900;48.890;9.190;2023-04-23T12:49:43;2.60;;;1.13;;
3769;SDS011;1900;48.890;9.190;2023-04-23T12:52:10;1.87;;;1.40;;
3769;SDS011;1900;48.890;9.190;2023-04-23T12:54:38;3.50;;;1.57;;
3769;SDS011;1900;48.890;9.190;2023-04-23T12:57:05;2.70;;;1.50;;
3769;SDS011;1900;48.890;9.190;2023-04-23T12:59:35;1.60;;;1.50;;
3769;SDS011;1900;48.890;9.190;2023-04-23T13:02:00;1.67;;;1.57;;
3769;SDS011;1900;48.890;9.190;2023-04-23T13:04:27;1.73;;;1.10;;
3769;SDS011;1900;48.890;9.190;2023-04-23T13:06:54;2.17;;;1.40;;
3769;SDS011;1900;48.890;9.190;2023-04-23T13:09:19;4.03;;;1.40;;
3769;SDS011;1900;48.890;9.190;2023-04-23T13:11:46;2.50;;;1.40;;
3769;SDS011;1900;48.890;9.190;2023-04-23T13:14:13;2.30;;;1.47;;
3769;SDS011;1900;48.890;9.190;2023-04-23T13:16:40;3.67;;;1.40;;
3769;SDS011;1900;48.890;9.190;2023-04-23T13:19:06;2.50;;;1.60;;
3769;SDS011;1900;48.890;9.190;2023-04-23T13:21:31;1.70;;;1.20;;
3769;SDS011;1900;48.890;9.190;2023-04-23T13:23:57;2.73;;;1.20;;
3769;SDS011;1900;48.890;9.190;2023-04-23T13:26:23;2.60;;;1.13;;
3769;SDS011;1900;48.890;9.190;2023-04-23T13:28:49;1.63;;;1.20;;
3769;SDS011;1900;48.890;9.190;2023-04-23T13:31:15;2.20;;;1.33;;
3769;SDS011;1900;48.890;9.190;2023-04-23T13:33:40;2.37;;;1.10;;
3769;SDS011;1900;48.890;9.190;2023-04-23T13:36:06;1.47;;;1.37;;
3769;SDS011;1900;48.890;9.190;2023-04-23T13:38:33;1.30;;;1.20;;
3769;SDS011;1900;48.890;9.190;2023-04-23T13:40:59;2.13;;;1.43;;
3769;SDS011;1900;48.890;9.190;2023-04-23T13:43:24;1.70;;;1.50;;
3769;SDS011;1900;48.890;9.190;2023-04-23T13:45:51;1.37;;;1.00;;
3769;SDS011;1900;48.890;9.190;2023-04-23T13:48:17;1.73;;;1.33;;
3769;SDS011;1900;48.890;9.190;2023-04-23T13:50:43;1.60;;;1.27;;
3769;SDS011;1900;48.890;9.190;2023-04-23T13:53:10;1.70;;;1.27;;
3769;SDS011;1900;48.890;9.190;2023-04-23T13:55:36;2.53;;;1.00;;
3769;SDS011;1900;48.890;9.190;2023-04-23T13:58:02;1.20;;;1.00;;
3769;SDS011;1900;48.890;9.190;2023-04-23T14:00:29;1.43;;;1.20;;
3769;SDS011;1900;48.890;9.190;2023-04-23T14:02:55;2.50;;;1.40;;
3769;SDS011;1900;48.890;9.190;2023-04-23T14:05:21;2.40;;;1.20;;
3769;SDS011;1900;48.890;9.190;2023-04-23T14:07:46;1.53;;;1.30;;
3769;SDS011;1900;48.890;9.190;2023-04-23T14:10:12;1.20;;;1.10;;
3769;SDS011;1900;48.890;9.190;2023-04-23T14:12:39;2.20;;;1.30;;
3769;SDS011;1900;48.890;9.190;2023-04-23T14:15:05;1.83;;;1.33;;
3769;SDS011;1900;48.890;9.190;2023-04-23T14:17:32;1.07;;;0.97;;
3769;SDS011;1900;48.890;9.190;2023-04-23T14:19:58;2.00;;;1.00;;
3769;SDS011;1900;48.890;9.190;2023-04-23T14:22:24;1.77;;;1.00;;
3769;SDS011;1900;48.890;9.190;2023-04-23T14:24:52;1.10;;;0.90;;
3769;SDS011;1900;48.890;9.190;2023-04-23T14:27:21;3.90;;;1.37;;
3769;SDS011;1900;48.890;9.190;2023-04-23T14:29:51;1.23;;;1.10;;
3769;SDS011;1900;48.890;9.190;2023-04-23T14:32:21;3.77;;;1.10;;
3769;SDS011;1900;48.890;9.190;2023-04-23T14:34:48;2.70;;;1.13;;
3769;SDS011;1900;48.890;9.190;2023-04-23T14:37:14;1.50;;;1.20;;
3769;SDS011;1900;48.890;9.190;2023-04-23T14:39:41;3.50;;;1.20;;
3769;SDS011;1900;48.890;9.190;2023-04-23T14:42:07;1.33;;;1.20;;
3769;SDS011;1900;48.890;9.190;2023-04-23T14:44:33;1.93;;;1.10;;
3769;SDS011;1900;48.890;9.190;2023-04-23T14:46:58;3.17;;;1.30;;
3769;SDS011;1900;48.890;9.190;2023-04-23T14:49:24;1.97;;;1.00;;
3769;SDS011;1900;48.890;9.190;2023-04-23T14:51:51;1.33;;;1.03;;
3769;SDS011;1900;48.890;9.190;2023-04-23T14:54:21;1.50;;;1.30;;
3769;SDS011;1900;48.890;9.190;2023-04-23T14:56:48;1.50;;;1.10;;
3769;SDS011;1900;48.890;9.190;2023-04-23T14:59:14;3.00;;;1.20;;
3769;SDS011;1900;48.890;9.190;2023-04-23T15:01:40;1.10;;;0.97;;
3769;SDS011;1900;48.890;9.190;2023-04-23T15:04:06;1.50;;;1.10;;
3769;SDS011;1900;48.890;9.190;2023-04-23T15:06:33;2.27;;;1.20;;
3769;SDS011;1900;48.890;9.190;2023-04-23T15:08:59;1.80;;;1.30;;
3769;SDS011;1900;48.890;9.190;2023-04-23T15:11:24;1.23;;;1.00;;
3769;SDS011;1900;48.890;9.190;2023-04-23T15:16:31;1.33;;;1.23;;
3769;SDS011;1900;48.890;9.190;2023-04-23T15:18:58;1.73;;;1.10;;
3769;SDS011;1900;48.890;9.190;2023-04-23T15:21:27;2.03;;;1.13;;
3769;SDS011;1900;48.890;9.190;2023-04-23T15:23:53;1.90;;;1.60;;
3769;SDS011;1900;48.890;9.190;2023-04-23T15:26:19;1.20;;;1.10;;
3769;SDS011;1900;48.890;9.190;2023-04-23T15:28:46;1.77;;;1.40;;
3769;SDS011;1900;48.890;9.190;2023-04-23T15:31:12;2.37;;;1.47;;
3769;SDS011;1900;48.890;9.190;2023-04-23T15:33:37;1.47;;;1.20;;